createdAt,value
2024-03-12T00:00:24.231Z,0.35
2024-03-12T00:02:51.614Z,0.34
2024-03-12T00:05:22.248Z,0.35
2024-03-12T00:07:52.341Z,0.34
2024-03-12T00:10:23.003Z,0.37
2024-03-12T00:12:53.244Z,0.36
2024-03-12T00:15:24.533Z,0.37
2024-03-12T00:17:55.060Z,0.39
2024-03-12T00:20:31.652Z,0.36
2024-03-12T00:23:00.990Z,0.38
2024-03-12T00:25:29.781Z,0.35
2024-03-12T00:27:57.431Z,0.34
2024-03-12T00:30:28.879Z,0.36
2024-03-12T00:33:02.498Z,0.38
2024-03-12T00:35:35.485Z,0.39
2024-03-12T00:38:05.416Z,0.36
2024-03-12T00:40:34.956Z,0.40
2024-03-12T00:43:04.345Z,0.44
2024-03-12T00:45:38.648Z,0.44
2024-03-12T00:48:10.892Z,0.42
2024-03-12T00:50:39.374Z,0.39
2024-03-12T00:53:09.332Z,0.38
2024-03-12T00:55:42.010Z,0.35
2024-03-12T00:58:13.755Z,0.32
2024-03-12T01:00:42.319Z,0.28
2024-03-12T01:03:13.224Z,0.25
2024-03-12T01:05:41.151Z,0.26
2024-03-12T01:08:13.309Z,0.26
2024-03-12T01:10:41.008Z,0.28
2024-03-12T01:13:11.374Z,0.26
2024-03-12T01:15:41.288Z,0.26
2024-03-12T01:18:10.109Z,0.25
2024-03-12T01:20:38.128Z,0.27
2024-03-12T01:23:07.262Z,0.28
2024-03-12T01:25:38.174Z,0.30
2024-03-12T01:28:08.121Z,0.29
2024-03-12T01:30:38.088Z,0.26
2024-03-12T01:33:09.654Z,0.24
2024-03-12T01:35:41.158Z,0.23
2024-03-12T01:38:11.303Z,0.25
2024-03-12T01:40:42.961Z,0.24
2024-03-12T01:43:10.938Z,0.25
2024-03-12T01:45:39.729Z,0.25
2024-03-12T01:48:09.776Z,0.26
2024-03-12T01:50:38.899Z,0.29
2024-03-12T01:53:07.555Z,0.33
2024-03-12T01:55:38.814Z,0.36
2024-03-12T01:58:08.033Z,0.35
2024-03-12T02:00:35.769Z,0.36
2024-03-12T02:03:03.344Z,0.36
2024-03-12T02:05:31.047Z,0.38
2024-03-12T02:07:58.671Z,0.36
2024-03-12T02:10:26.494Z,0.33
2024-03-12T02:12:54.141Z,0.32
2024-03-12T02:15:23.719Z,0.30
2024-03-12T02:17:55.761Z,0.24
2024-03-12T02:20:24.006Z,0.22
2024-03-12T02:22:54.548Z,0.21
2024-03-12T02:25:24.109Z,0.22
2024-03-12T02:27:54.336Z,0.21
2024-03-12T02:30:22.829Z,0.22
2024-03-12T02:32:51.202Z,0.24
2024-03-12T02:35:18.793Z,0.26
2024-03-12T02:37:46.485Z,0.29
2024-03-12T02:40:15.429Z,0.32
2024-03-12T02:42:46.619Z,0.33
2024-03-12T02:45:16.570Z,0.32
2024-03-12T02:47:45.440Z,0.33
2024-03-12T02:50:13.124Z,0.33
2024-03-12T02:52:43.112Z,0.32
2024-03-12T02:55:11.099Z,0.31
2024-03-12T02:57:38.912Z,0.31
2024-03-12T03:00:16.088Z,0.30
2024-03-12T03:02:45.199Z,0.30
2024-03-12T03:05:13.469Z,0.33
2024-03-12T03:07:43.345Z,0.27
2024-03-12T03:10:12.644Z,0.28
2024-03-12T03:12:43.033Z,0.23
2024-03-12T03:15:14.117Z,0.27
2024-03-12T03:17:43.957Z,0.27
2024-03-12T03:20:18.003Z,0.26
2024-03-12T03:22:48.351Z,0.23
2024-03-12T03:25:16.551Z,0.23
2024-03-12T03:27:45.027Z,0.19
2024-03-12T03:30:19.345Z,0.16
2024-03-12T03:32:47.701Z,0.17
2024-03-12T03:35:15.330Z,0.21
2024-03-12T03:37:44.140Z,0.25
2024-03-12T03:40:13.122Z,0.27
2024-03-12T03:42:41.591Z,0.29
2024-03-12T03:45:09.637Z,0.30
2024-03-12T03:47:38.675Z,0.34
2024-03-12T03:50:08.770Z,0.32
2024-03-12T03:52:38.221Z,0.34
2024-03-12T03:55:06.865Z,0.35
2024-03-12T03:57:34.204Z,0.34
2024-03-12T04:00:03.004Z,0.33
2024-03-12T04:02:33.015Z,0.31
2024-03-12T04:05:04.283Z,0.25
2024-03-12T04:07:31.599Z,0.23
2024-03-12T04:09:58.957Z,0.22
2024-03-12T04:12:26.701Z,0.25
2024-03-12T04:14:54.150Z,0.28
2024-03-12T04:17:23.357Z,0.33
2024-03-12T04:19:51.026Z,0.31
2024-03-12T04:22:20.576Z,0.29
2024-03-12T04:24:48.167Z,0.28
2024-03-12T04:27:16.411Z,0.30
2024-03-12T04:29:44.038Z,0.33
2024-03-12T04:32:11.280Z,0.36
2024-03-12T04:34:38.690Z,0.35
2024-03-12T04:37:06.298Z,0.33
2024-03-12T04:39:35.181Z,0.33
2024-03-12T04:42:04.111Z,0.37
2024-03-12T04:44:31.411Z,0.39
2024-03-12T04:46:59.231Z,0.37
2024-03-12T04:49:26.796Z,0.40
2024-03-12T04:51:54.309Z,0.42
2024-03-12T04:54:21.650Z,0.47
2024-03-12T04:56:53.110Z,0.49
2024-03-12T04:59:20.409Z,0.48
2024-03-12T05:01:49.848Z,0.54
2024-03-12T05:04:22.592Z,0.57
2024-03-12T05:06:51.322Z,0.56
2024-03-12T05:09:19.642Z,0.61
2024-03-12T05:11:47.106Z,0.66
2024-03-12T05:14:16.783Z,0.69
2024-03-12T05:16:44.181Z,0.69
2024-03-12T05:19:12.835Z,0.67
2024-03-12T05:21:40.535Z,0.70
2024-03-12T05:24:07.911Z,0.74
2024-03-12T05:26:37.806Z,0.81
2024-03-12T05:29:05.338Z,0.87
2024-03-12T05:31:35.983Z,0.93
2024-03-12T05:34:04.252Z,0.97
2024-03-12T05:36:41.981Z,1.02
2024-03-12T05:39:20.161Z,1.07
2024-03-12T05:42:10.664Z,1.13
2024-03-12T05:44:56.636Z,1.15
2024-03-12T05:47:45.517Z,1.21
2024-03-12T05:50:18.371Z,1.27
2024-03-12T05:52:49.774Z,1.36
2024-03-12T05:55:17.435Z,1.45
2024-03-12T05:57:46.128Z,1.54
2024-03-12T06:00:14.182Z,1.55
2024-03-12T06:02:43.280Z,1.51
2024-03-12T06:05:14.242Z,1.51
2024-03-12T06:07:42.013Z,1.53
2024-03-12T06:10:10.384Z,1.56
2024-03-12T06:12:37.926Z,1.57
2024-03-12T06:15:08.523Z,1.63
2024-03-12T06:17:36.047Z,1.68
2024-03-12T06:20:11.358Z,1.76
2024-03-12T06:22:39.157Z,1.84
2024-03-12T06:25:10.656Z,1.92
2024-03-12T06:27:41.817Z,2.00
2024-03-12T06:30:09.806Z,2.04
2024-03-12T06:32:37.133Z,2.10
2024-03-12T06:35:06.561Z,2.18
2024-03-12T06:37:34.357Z,2.24
2024-03-12T06:40:04.301Z,2.24
2024-03-12T06:42:32.182Z,2.29
2024-03-12T06:45:01.776Z,2.37
2024-03-12T06:47:38.407Z,2.33
2024-03-12T06:50:11.504Z,2.33
2024-03-12T06:52:38.798Z,2.32
2024-03-12T06:55:06.799Z,2.40
2024-03-12T06:57:35.627Z,2.40
2024-03-12T07:00:10.885Z,2.34
2024-03-12T07:02:41.936Z,2.27
2024-03-12T07:05:11.132Z,2.23
2024-03-12T07:07:45.248Z,2.32
2024-03-12T07:10:13.062Z,2.36
2024-03-12T07:12:40.808Z,2.31
2024-03-12T07:15:08.844Z,2.35
2024-03-12T07:17:36.233Z,2.42
2024-03-12T07:20:11.480Z,2.51
2024-03-12T07:22:46.402Z,2.64
2024-03-12T07:25:14.774Z,2.71
2024-03-12T07:27:42.658Z,2.75
2024-03-12T07:30:11.804Z,2.81
2024-03-12T07:32:39.482Z,2.84
2024-03-12T07:35:07.909Z,2.88
2024-03-12T07:37:42.111Z,2.92
2024-03-12T07:40:13.188Z,3.03
2024-03-12T07:42:42.870Z,3.04
2024-03-12T07:45:14.262Z,2.97
2024-03-12T07:47:41.934Z,2.94
2024-03-12T07:50:10.527Z,2.99
2024-03-12T07:52:37.984Z,3.14
2024-03-12T07:55:07.522Z,3.24
2024-03-12T07:57:36.941Z,3.32
2024-03-12T08:00:16.154Z,3.32
2024-03-12T08:02:43.897Z,3.47
2024-03-12T08:05:12.350Z,3.64
2024-03-12T08:07:40.293Z,3.87
2024-03-12T08:10:11.198Z,4.21
2024-03-12T08:12:41.213Z,4.50
2024-03-12T08:15:14.705Z,4.71
2024-03-12T08:17:44.074Z,4.81
2024-03-12T08:20:15.031Z,4.94
2024-03-12T08:22:42.981Z,5.28
2024-03-12T08:25:13.227Z,5.65
2024-03-12T08:27:42.232Z,5.98
2024-03-12T08:30:10.699Z,6.29
2024-03-12T08:32:38.341Z,6.54
2024-03-12T08:35:06.635Z,6.72
2024-03-12T08:37:38.338Z,6.76
2024-03-12T08:40:08.779Z,6.54
2024-03-12T08:42:44.733Z,6.17
2024-03-12T08:45:25.078Z,5.88
2024-03-12T08:47:52.586Z,5.81
2024-03-12T08:50:20.040Z,5.75
2024-03-12T08:52:47.542Z,5.77
2024-03-12T08:55:15.299Z,6.15
2024-03-12T08:57:43.289Z,6.23
2024-03-12T09:00:14.547Z,6.03
2024-03-12T09:02:43.607Z,5.88
2024-03-12T09:05:11.179Z,5.71
2024-03-12T09:07:39.032Z,5.64
2024-03-12T09:10:13.207Z,5.63
2024-03-12T09:12:42.395Z,5.75
2024-03-12T09:15:11.316Z,5.92
2024-03-12T09:17:39.927Z,6.03
2024-03-12T09:20:12.791Z,6.38
2024-03-12T09:22:40.963Z,6.47
2024-03-12T09:25:10.289Z,6.46
2024-03-12T09:27:38.103Z,6.61
2024-03-12T09:30:08.673Z,6.86
2024-03-12T09:32:36.147Z,7.16
2024-03-12T09:35:06.598Z,7.55
2024-03-12T09:37:37.521Z,7.67
2024-03-12T09:40:09.083Z,7.65
2024-03-12T09:42:37.997Z,7.66
2024-03-12T09:45:08.286Z,7.52
2024-03-12T09:47:36.822Z,7.53
2024-03-12T09:50:12.198Z,7.70
2024-03-12T09:52:42.639Z,7.88
2024-03-12T09:55:12.461Z,8.07
2024-03-12T09:57:39.957Z,8.42
2024-03-12T10:00:13.004Z,8.73
2024-03-12T10:02:40.467Z,8.92
2024-03-12T10:05:11.190Z,8.83
2024-03-12T10:08:00.182Z,8.33
2024-03-12T10:10:28.823Z,8.10
2024-03-12T10:12:56.393Z,8.13
2024-03-12T10:15:24.356Z,8.40
2024-03-12T10:17:59.308Z,8.57
2024-03-12T10:20:26.724Z,8.62
2024-03-12T10:23:06.070Z,8.68
2024-03-12T10:25:36.185Z,8.79
2024-03-12T10:28:08.357Z,8.84
2024-03-12T10:30:37.103Z,8.86
2024-03-12T10:33:18.393Z,8.94
2024-03-12T10:35:47.076Z,8.96
2024-03-12T10:38:25.022Z,8.99
2024-03-12T10:40:56.858Z,8.91
2024-03-12T10:43:25.538Z,8.79
2024-03-12T10:45:53.229Z,8.57
2024-03-12T10:48:22.207Z,8.42
2024-03-12T10:50:50.301Z,8.52
2024-03-12T10:53:19.251Z,8.74
2024-03-12T10:55:46.704Z,8.88
2024-03-12T10:58:16.981Z,8.91
2024-03-12T11:00:45.934Z,8.93
2024-03-12T11:03:15.061Z,8.92
2024-03-12T11:05:44.475Z,8.95
2024-03-12T11:08:15.357Z,9.02
2024-03-12T11:10:45.248Z,9.09
2024-03-12T11:13:17.340Z,9.01
2024-03-12T11:15:44.771Z,9.00
2024-03-12T11:18:12.439Z,8.99
2024-03-12T11:20:40.876Z,8.96
2024-03-12T11:23:09.585Z,8.96
2024-03-12T11:25:49.798Z,8.97
2024-03-12T11:28:22.127Z,9.21
2024-03-12T11:31:01.142Z,9.40
2024-03-12T11:33:46.712Z,9.38
2024-03-12T11:36:27.508Z,9.34
2024-03-12T11:38:55.677Z,9.36
2024-03-12T11:41:23.122Z,9.48
2024-03-12T11:43:51.916Z,9.35
2024-03-12T11:46:41.035Z,9.13
2024-03-12T11:53:26.952Z,9.41
2024-03-12T11:56:01.041Z,9.51
2024-03-12T11:58:32.904Z,9.64
2024-03-12T12:01:03.653Z,9.87
2024-03-12T12:03:31.200Z,10.04
2024-03-12T12:05:59.649Z,10.12
2024-03-12T12:08:27.490Z,10.10
2024-03-12T12:11:02.687Z,10.08
2024-03-12T12:13:30.886Z,10.09
2024-03-12T12:16:02.301Z,10.10
2024-03-12T12:18:32.263Z,10.06
2024-03-12T12:21:03.957Z,10.03
2024-03-12T12:23:31.458Z,10.00
2024-03-12T12:25:59.706Z,9.96
2024-03-12T12:28:27.894Z,10.06
2024-03-12T12:31:02.293Z,10.21
2024-03-12T12:33:33.559Z,10.41
2024-03-12T12:36:09.587Z,10.53
2024-03-12T12:38:40.348Z,10.59
2024-03-12T12:41:08.231Z,10.74
2024-03-12T12:43:35.778Z,10.81
2024-03-12T12:46:06.999Z,10.89
2024-03-12T12:48:36.790Z,10.84
2024-03-12T12:51:05.197Z,10.94
2024-03-12T12:53:32.552Z,11.03
2024-03-12T12:56:02.544Z,11.17
2024-03-12T12:58:32.909Z,11.41
2024-03-12T13:01:02.268Z,11.62
2024-03-12T13:03:39.316Z,11.79
2024-03-12T13:06:17.085Z,11.97
2024-03-12T13:08:47.077Z,12.05
2024-03-12T13:11:19.717Z,12.13
2024-03-12T13:13:49.175Z,12.30
2024-03-12T13:16:19.381Z,12.37
2024-03-12T13:18:49.562Z,12.56
2024-03-12T13:21:19.663Z,12.60
2024-03-12T13:23:48.007Z,12.72
2024-03-12T13:26:16.570Z,12.72
2024-03-12T13:28:44.980Z,12.69
2024-03-12T13:31:13.453Z,12.72
2024-03-12T13:33:41.728Z,12.83
2024-03-12T13:36:11.447Z,12.87
2024-03-12T13:38:41.089Z,12.94
2024-03-12T13:41:08.955Z,12.85
2024-03-12T13:43:37.402Z,12.61
2024-03-12T13:46:08.252Z,12.33
2024-03-12T13:48:41.404Z,11.89
2024-03-12T13:51:14.087Z,11.18
2024-03-12T13:53:41.962Z,10.46
2024-03-12T13:56:11.353Z,10.03
2024-03-12T13:58:41.735Z,9.62
2024-03-12T14:01:13.975Z,9.22
2024-03-12T14:03:41.726Z,8.97
2024-03-12T14:06:10.820Z,8.65
2024-03-12T14:08:38.545Z,8.39
2024-03-12T14:11:05.793Z,8.23
2024-03-12T14:13:33.437Z,8.15
2024-03-12T14:16:00.974Z,8.09
2024-03-12T14:18:28.556Z,7.98
2024-03-12T14:20:56.444Z,7.91
2024-03-12T14:23:25.507Z,7.83
2024-03-12T14:25:52.953Z,7.81
2024-03-12T14:28:21.553Z,7.71
2024-03-12T14:30:49.745Z,7.57
2024-03-12T14:33:17.437Z,7.45
2024-03-12T14:35:45.302Z,7.45
2024-03-12T14:38:13.354Z,7.43
2024-03-12T14:40:42.801Z,7.28
2024-03-12T14:43:12.283Z,7.13
2024-03-12T14:45:40.024Z,7.10
2024-03-12T14:48:09.361Z,7.03
2024-03-12T14:50:38.094Z,6.96
2024-03-12T14:53:05.739Z,6.89
2024-03-12T14:55:33.337Z,6.85
2024-03-12T14:58:02.349Z,6.82
2024-03-12T15:00:29.924Z,6.80
2024-03-12T15:02:57.291Z,6.79
2024-03-12T15:05:24.959Z,6.74
2024-03-12T15:07:52.252Z,6.72
2024-03-12T15:10:19.723Z,6.66
2024-03-12T15:12:47.377Z,6.62
2024-03-12T15:15:16.336Z,6.56
2024-03-12T15:17:46.335Z,6.52
2024-03-12T15:20:16.737Z,6.48
2024-03-12T15:22:44.844Z,6.42
2024-03-12T15:25:13.328Z,6.37
2024-03-12T15:27:43.359Z,6.39
2024-03-12T15:30:12.959Z,6.37
2024-03-12T15:32:42.970Z,6.34
2024-03-12T15:35:12.167Z,6.28
2024-03-12T15:37:39.693Z,6.22
2024-03-12T15:40:10.394Z,6.15
2024-03-12T15:42:41.011Z,6.05
2024-03-12T15:45:11.772Z,5.92
2024-03-12T15:47:41.117Z,5.87
2024-03-12T15:50:13.483Z,5.79
2024-03-12T15:52:40.852Z,5.78
2024-03-12T15:55:14.085Z,5.69
2024-03-12T15:57:42.263Z,5.57
2024-03-12T16:00:15.148Z,5.43
2024-03-12T16:02:43.253Z,5.38
2024-03-12T16:05:12.419Z,5.27
2024-03-12T16:07:42.827Z,5.16
2024-03-12T16:10:11.094Z,5.12
2024-03-12T16:12:42.880Z,5.04
2024-03-12T16:15:13.881Z,5.01
2024-03-12T16:17:41.496Z,4.90
2024-03-12T16:20:14.473Z,4.81
2024-03-12T16:22:44.222Z,4.68
2024-03-12T16:25:12.018Z,4.64
2024-03-12T16:27:40.945Z,4.60
2024-03-12T16:30:11.861Z,4.58
2024-03-12T16:32:41.489Z,4.49
2024-03-12T16:35:09.826Z,4.42
2024-03-12T16:37:40.179Z,4.35
2024-03-12T16:40:10.564Z,4.33
2024-03-12T16:42:38.533Z,4.31
2024-03-12T16:45:07.421Z,4.29
2024-03-12T16:47:35.029Z,4.30
2024-03-12T16:50:09.567Z,4.23
2024-03-12T16:52:37.385Z,4.22
2024-03-12T16:55:06.007Z,4.21
2024-03-12T16:57:37.862Z,4.17
2024-03-12T17:00:11.992Z,4.10
2024-03-12T17:02:43.594Z,4.05
2024-03-12T17:05:14.134Z,3.95
2024-03-12T17:07:42.739Z,3.95
2024-03-12T17:10:10.978Z,3.91
2024-03-12T17:12:41.463Z,3.86
2024-03-12T17:15:10.526Z,3.83
2024-03-12T17:17:42.540Z,3.70
2024-03-12T17:20:11.561Z,3.68
2024-03-12T17:22:41.104Z,3.62
2024-03-12T17:25:11.617Z,3.59
2024-03-12T17:27:42.721Z,3.58
2024-03-12T17:30:12.305Z,3.54
2024-03-12T17:32:41.960Z,3.48
2024-03-12T17:35:12.858Z,3.44
2024-03-12T17:37:42.814Z,3.38
2024-03-12T17:40:15.707Z,3.27
2024-03-12T17:42:46.176Z,3.16
2024-03-12T17:45:15.297Z,3.12
2024-03-12T17:47:48.622Z,3.10
2024-03-12T17:50:19.235Z,3.09
2024-03-12T17:52:51.384Z,3.09
2024-03-12T17:55:21.076Z,3.13
2024-03-12T17:57:52.432Z,3.16
2024-03-12T18:00:23.516Z,3.17
2024-03-12T18:02:51.542Z,3.15
2024-03-12T18:05:23.257Z,3.15
2024-03-12T18:07:53.533Z,3.12
2024-03-12T18:10:28.278Z,3.08
2024-03-12T18:12:57.885Z,3.04
2024-03-12T18:15:25.819Z,2.99
2024-03-12T18:17:54.284Z,2.93
2024-03-12T18:20:31.200Z,2.88
2024-03-12T18:22:59.808Z,2.83
2024-03-12T18:25:27.379Z,2.78
2024-03-12T18:27:57.586Z,2.71
2024-03-12T18:30:26.124Z,2.66
2024-03-12T18:32:55.730Z,2.55
2024-03-12T18:35:23.312Z,2.46
2024-03-12T18:37:52.052Z,2.33
2024-03-12T18:40:21.012Z,2.24
2024-03-12T18:42:49.769Z,2.16
2024-03-12T18:45:19.961Z,2.14
2024-03-12T18:47:52.214Z,2.14
2024-03-12T18:50:22.065Z,2.13
2024-03-12T18:52:50.505Z,2.15
2024-03-12T18:55:19.507Z,2.16
2024-03-12T18:57:47.590Z,2.17
2024-03-12T19:00:20.104Z,2.12
2024-03-12T19:02:51.722Z,2.10
2024-03-12T19:05:21.670Z,2.09
2024-03-12T19:07:51.832Z,2.05
2024-03-12T19:10:20.950Z,2.04
2024-03-12T19:12:49.410Z,2.07
2024-03-12T19:15:22.317Z,2.09
2024-03-12T19:17:52.975Z,2.08
2024-03-12T19:20:23.549Z,2.07
2024-03-12T19:22:54.832Z,2.07
2024-03-12T19:25:23.310Z,2.12
2024-03-12T19:27:52.342Z,2.09
2024-03-12T19:30:21.073Z,2.06
2024-03-12T19:32:51.771Z,2.03
2024-03-12T19:35:20.458Z,1.97
2024-03-12T19:37:49.749Z,1.95
2024-03-12T19:40:18.264Z,1.97
2024-03-12T19:42:48.773Z,1.95
2024-03-12T19:45:21.216Z,1.93
2024-03-12T19:47:50.289Z,1.90
2024-03-12T19:50:25.892Z,1.90
2024-03-12T19:52:54.395Z,1.87
2024-03-12T19:55:26.272Z,1.85
2024-03-12T19:57:57.992Z,1.83
2024-03-12T20:00:27.360Z,1.84
2024-03-12T20:02:57.974Z,1.83
2024-03-12T20:05:28.708Z,1.81
2024-03-12T20:07:57.148Z,1.82
2024-03-12T20:10:26.668Z,1.83
2024-03-12T20:12:56.602Z,1.78
2024-03-12T20:15:24.907Z,1.68
2024-03-12T20:17:52.899Z,1.64
2024-03-12T20:20:22.536Z,1.58
2024-03-12T20:22:54.810Z,1.57
2024-03-12T20:25:23.448Z,1.56
2024-03-12T20:27:54.756Z,1.56
2024-03-12T20:30:28.401Z,1.53
2024-03-12T20:32:59.825Z,1.45
2024-03-12T20:35:29.277Z,1.40
2024-03-12T20:37:58.979Z,1.35
2024-03-12T20:40:27.088Z,1.34
2024-03-12T20:43:00.219Z,1.30
2024-03-12T20:45:28.168Z,1.25
2024-03-12T20:47:55.933Z,1.18
2024-03-12T20:50:23.410Z,1.12
2024-03-12T20:52:51.632Z,0.98
2024-03-12T20:55:22.323Z,0.90
2024-03-12T20:57:49.944Z,0.83
2024-03-12T21:00:19.462Z,0.75
2024-03-12T21:02:48.837Z,0.69
2024-03-12T21:05:16.869Z,0.64
2024-03-12T21:07:45.097Z,0.55
2024-03-12T21:10:12.981Z,0.46
2024-03-12T21:12:49.747Z,0.33
2024-03-12T21:15:17.967Z,0.25
2024-03-12T21:17:46.160Z,0.19
2024-03-12T21:20:15.528Z,0.13
2024-03-12T21:22:43.023Z,0.11
2024-03-12T21:25:11.831Z,0.11
2024-03-12T21:27:39.374Z,0.11
2024-03-12T21:30:15.423Z,0.14
2024-03-12T21:32:44.338Z,0.11
2024-03-12T21:35:13.281Z,0.16
2024-03-12T21:37:40.781Z,0.17
2024-03-12T21:40:12.815Z,0.18
2024-03-12T21:42:43.920Z,0.19
2024-03-12T21:45:16.683Z,0.20
2024-03-12T21:47:46.844Z,0.20
2024-03-12T21:50:15.871Z,0.19
2024-03-12T21:52:44.225Z,0.16
2024-03-12T21:55:12.526Z,0.14
2024-03-12T21:57:44.755Z,0.09
2024-03-12T22:00:25.369Z,0.02
2024-03-12T22:02:53.590Z,-0.04
2024-03-12T22:05:21.503Z,-0.04
2024-03-12T22:07:50.870Z,-0.04
2024-03-12T22:10:19.137Z,-0.02
2024-03-12T22:12:46.667Z,-0.02
2024-03-12T22:15:16.420Z,0.00
2024-03-12T22:17:45.644Z,-0.01
2024-03-12T22:20:20.005Z,0.01
2024-03-12T22:22:48.727Z,-0.03
2024-03-12T22:25:17.834Z,-0.07
2024-03-12T22:27:47.129Z,-0.09
2024-03-12T22:30:18.090Z,-0.14
2024-03-12T22:32:46.680Z,-0.19
2024-03-12T22:35:15.042Z,-0.25
2024-03-12T22:37:44.870Z,-0.30
2024-03-12T22:40:13.893Z,-0.33
2024-03-12T22:42:42.071Z,-0.36
2024-03-12T22:45:12.709Z,-0.40
2024-03-12T22:47:42.313Z,-0.43
2024-03-12T22:50:11.478Z,-0.44
2024-03-12T22:52:40.236Z,-0.47
2024-03-12T22:55:09.069Z,-0.50
2024-03-12T22:57:39.879Z,-0.51
2024-03-12T23:00:31.688Z,-0.53
2024-03-12T23:03:03.208Z,-0.54
2024-03-12T23:05:41.894Z,-0.54
2024-03-12T23:08:12.768Z,-0.60
2024-03-12T23:10:41.872Z,-0.67
2024-03-12T23:13:14.944Z,-0.72
2024-03-12T23:15:44.070Z,-0.75
2024-03-12T23:18:13.380Z,-0.74
2024-03-12T23:20:41.725Z,-0.76
2024-03-12T23:23:09.244Z,-0.77
2024-03-12T23:25:37.576Z,-0.82
2024-03-12T23:28:05.607Z,-0.83
2024-03-12T23:30:36.021Z,-0.85
2024-03-12T23:33:03.640Z,-0.87
2024-03-12T23:35:34.364Z,-0.91
2024-03-12T23:38:03.726Z,-0.92
2024-03-12T23:40:31.609Z,-0.96
2024-03-12T23:42:59.152Z,-0.99
2024-03-12T23:45:27.687Z,-1.02
2024-03-12T23:47:55.200Z,-1.03
2024-03-12T23:50:22.573Z,-1.05
2024-03-12T23:52:51.891Z,-1.06
2024-03-12T23:55:20.571Z,-1.08
2024-03-12T23:57:49.869Z,-1.09
